createdAt,value
2023-05-21T00:01:45.619Z,100.00
2023-05-21T00:04:13.158Z,100.00
2023-05-21T00:06:40.217Z,100.00
2023-05-21T00:09:07.533Z,100.00
2023-05-21T00:11:34.728Z,100.00
2023-05-21T00:14:01.988Z,100.00
2023-05-21T00:16:29.091Z,100.00
2023-05-21T00:18:58.075Z,100.00
2023-05-21T00:21:26.125Z,100.00
2023-05-21T00:23:57.065Z,100.00
2023-05-21T00:26:24.186Z,100.00
2023-05-21T00:28:54.587Z,100.00
2023-05-21T00:31:21.750Z,100.00
2023-05-21T00:33:48.799Z,100.00
2023-05-21T00:36:15.879Z,100.00
2023-05-21T00:38:44.154Z,100.00
2023-05-21T00:41:11.680Z,100.00
2023-05-21T00:43:42.127Z,100.00
2023-05-21T00:46:13.914Z,100.00
2023-05-21T00:48:40.988Z,100.00
2023-05-21T00:51:08.000Z,100.00
2023-05-21T00:53:35.658Z,100.00
2023-05-21T00:56:03.710Z,100.00
2023-05-21T00:58:33.599Z,100.00
2023-05-21T01:01:07.011Z,100.00
2023-05-21T01:03:38.752Z,100.00
2023-05-21T01:06:08.386Z,100.00
2023-05-21T01:08:37.605Z,100.00
2023-05-21T01:11:06.591Z,100.00
2023-05-21T01:13:37.394Z,100.00
2023-05-21T01:16:06.746Z,100.00
2023-05-21T01:18:37.760Z,100.00
2023-05-21T01:21:07.482Z,100.00
2023-05-21T01:23:34.805Z,100.00
2023-05-21T01:26:01.964Z,100.00
2023-05-21T01:28:29.776Z,100.00
2023-05-21T01:31:03.139Z,100.00
2023-05-21T01:33:39.035Z,100.00
2023-05-21T01:36:24.359Z,100.00
2023-05-21T01:39:18.456Z,100.00
2023-05-21T01:41:46.274Z,100.00
2023-05-21T01:44:15.038Z,100.00
2023-05-21T01:46:42.050Z,100.00
2023-05-21T01:49:09.299Z,100.00
2023-05-21T01:51:37.098Z,100.00
2023-05-21T01:54:04.072Z,100.00
2023-05-21T01:56:33.748Z,100.00
2023-05-21T01:59:00.741Z,100.00
2023-05-21T02:01:30.181Z,100.00
2023-05-21T02:03:58.143Z,100.00
2023-05-21T02:06:25.987Z,100.00
2023-05-21T02:08:52.941Z,100.00
2023-05-21T02:11:20.019Z,100.00
2023-05-21T02:13:47.065Z,100.00
2023-05-21T02:16:15.810Z,100.00
2023-05-21T02:18:43.544Z,100.00
2023-05-21T02:21:14.031Z,100.00
2023-05-21T02:23:42.554Z,100.00
2023-05-21T02:26:09.564Z,100.00
2023-05-21T02:28:36.606Z,100.00
2023-05-21T02:31:03.993Z,100.00
2023-05-21T02:33:30.994Z,100.00
2023-05-21T02:35:58.022Z,100.00
2023-05-21T02:38:25.794Z,100.00
2023-05-21T02:40:53.112Z,100.00
2023-05-21T02:43:20.207Z,100.00
2023-05-21T02:45:47.653Z,100.00
2023-05-21T02:48:14.993Z,100.00
2023-05-21T02:50:42.488Z,100.00
2023-05-21T02:53:09.559Z,100.00
2023-05-21T02:55:36.730Z,100.00
2023-05-21T02:58:03.949Z,100.00
2023-05-21T03:00:31.131Z,100.00
2023-05-21T03:02:59.993Z,100.00
2023-05-21T03:05:27.495Z,100.00
2023-05-21T03:07:54.585Z,100.00
2023-05-21T03:10:21.872Z,100.00
2023-05-21T03:12:51.016Z,100.00
2023-05-21T03:15:18.123Z,100.00
2023-05-21T03:17:45.192Z,100.00
2023-05-21T03:20:18.625Z,100.00
2023-05-21T03:22:46.440Z,100.00
2023-05-21T03:25:13.660Z,100.00
2023-05-21T03:27:41.033Z,100.00
2023-05-21T03:30:20.043Z,100.00
2023-05-21T03:33:07.363Z,100.00
2023-05-21T03:35:34.905Z,100.00
2023-05-21T03:38:02.052Z,100.00
2023-05-21T03:40:29.108Z,100.00
2023-05-21T03:42:56.110Z,100.00
2023-05-21T03:45:23.139Z,100.00
2023-05-21T03:48:25.214Z,100.00
2023-05-21T03:50:52.373Z,100.00
2023-05-21T03:53:19.419Z,100.00
2023-05-21T03:55:47.191Z,100.00
2023-05-21T03:58:14.122Z,100.00
2023-05-21T04:00:41.184Z,100.00
2023-05-21T04:03:08.312Z,100.00
2023-05-21T04:05:35.582Z,100.00
2023-05-21T04:08:02.712Z,100.00
2023-05-21T04:10:29.803Z,100.00
2023-05-21T04:12:56.743Z,100.00
2023-05-21T04:15:24.597Z,100.00
2023-05-21T04:17:52.403Z,100.00
2023-05-21T04:20:19.479Z,100.00
2023-05-21T04:22:46.580Z,100.00
2023-05-21T04:25:14.176Z,100.00
2023-05-21T04:27:42.686Z,100.00
2023-05-21T04:30:11.171Z,100.00
2023-05-21T04:32:39.336Z,100.00
2023-05-21T04:35:08.360Z,100.00
2023-05-21T04:37:36.247Z,100.00
2023-05-21T04:40:04.257Z,100.00
2023-05-21T04:42:32.916Z,100.00
2023-05-21T04:45:00.215Z,100.00
2023-05-21T04:47:30.470Z,100.00
2023-05-21T04:49:59.413Z,100.00
2023-05-21T04:52:27.971Z,100.00
2023-05-21T04:54:55.010Z,100.00
2023-05-21T04:57:24.616Z,100.00
2023-05-21T04:59:52.623Z,100.00
2023-05-21T05:02:19.639Z,100.00
2023-05-21T05:04:46.593Z,100.00
2023-05-21T05:07:13.786Z,100.00
2023-05-21T05:09:40.871Z,100.00
2023-05-21T05:12:08.692Z,100.00
2023-05-21T05:14:36.057Z,100.00
2023-05-21T05:17:03.307Z,100.00
2023-05-21T05:19:31.963Z,100.00
2023-05-21T05:21:59.138Z,100.00
2023-05-21T05:24:26.181Z,100.00
2023-05-21T05:26:53.249Z,100.00
2023-05-21T05:29:20.501Z,100.00
2023-05-21T05:31:48.021Z,100.00
2023-05-21T05:34:15.871Z,100.00
2023-05-21T05:36:42.798Z,100.00
2023-05-21T05:39:10.273Z,100.00
2023-05-21T05:41:38.158Z,100.00
2023-05-21T05:44:05.966Z,100.00
2023-05-21T05:46:36.497Z,100.00
2023-05-21T05:49:03.701Z,100.00
2023-05-21T05:51:30.750Z,100.00
2023-05-21T05:53:58.124Z,100.00
2023-05-21T05:56:25.136Z,100.00
2023-05-21T05:58:52.477Z,100.00
2023-05-21T06:01:19.615Z,100.00
2023-05-21T06:03:47.419Z,100.00
2023-05-21T06:06:17.261Z,100.00
2023-05-21T06:08:44.865Z,100.00
2023-05-21T06:11:12.694Z,100.00
2023-05-21T06:13:40.030Z,100.00
2023-05-21T06:16:09.924Z,100.00
2023-05-21T06:18:37.570Z,100.00
2023-05-21T06:21:04.873Z,100.00
2023-05-21T06:23:32.708Z,100.00
2023-05-21T06:26:00.116Z,100.00
2023-05-21T06:28:27.410Z,100.00
2023-05-21T06:30:55.011Z,100.00
2023-05-21T06:33:22.075Z,100.00
2023-05-21T06:35:49.178Z,100.00
2023-05-21T06:38:16.161Z,100.00
2023-05-21T06:40:44.600Z,100.00
2023-05-21T06:43:14.810Z,100.00
2023-05-21T06:46:01.567Z,100.00
2023-05-21T06:48:37.714Z,100.00
2023-05-21T06:51:04.857Z,100.00
2023-05-21T06:53:31.968Z,100.00
2023-05-21T06:55:58.908Z,100.00
2023-05-21T06:58:55.511Z,100.00
2023-05-21T07:01:23.610Z,100.00
2023-05-21T07:03:50.707Z,100.00
2023-05-21T07:06:18.411Z,100.00
2023-05-21T07:08:46.316Z,100.00
2023-05-21T07:11:13.645Z,100.00
2023-05-21T07:13:41.110Z,100.00
2023-05-21T07:16:08.403Z,100.00
2023-05-21T07:18:37.674Z,100.00
2023-05-21T07:21:04.674Z,100.00
2023-05-21T07:23:31.678Z,100.00
2023-05-21T07:25:58.724Z,100.00
2023-05-21T07:28:25.774Z,100.00
2023-05-21T07:30:52.956Z,100.00
2023-05-21T07:33:27.881Z,100.00
2023-05-21T07:35:55.069Z,100.00
2023-05-21T07:38:22.030Z,100.00
2023-05-21T07:40:49.127Z,100.00
2023-05-21T07:43:16.197Z,100.00
2023-05-21T07:45:43.226Z,100.00
2023-05-21T07:48:10.266Z,100.00
2023-05-21T07:50:43.572Z,100.00
2023-05-21T07:53:10.731Z,100.00
2023-05-21T07:55:38.401Z,100.00
2023-05-21T07:58:05.759Z,100.00
2023-05-21T08:00:44.922Z,99.87
2023-05-21T08:03:12.514Z,98.86
2023-05-21T08:05:39.731Z,100.00
2023-05-21T08:08:06.759Z,100.00
2023-05-21T08:10:34.132Z,99.06
2023-05-21T08:13:01.405Z,97.72
2023-05-21T08:15:28.357Z,98.11
2023-05-21T08:17:55.502Z,96.77
2023-05-21T08:20:23.020Z,95.75
2023-05-21T08:22:50.711Z,95.53
2023-05-21T08:25:17.721Z,97.09
2023-05-21T08:27:44.735Z,97.26
2023-05-21T08:30:12.013Z,95.29
2023-05-21T08:32:39.164Z,96.40
2023-05-21T08:35:07.324Z,93.03
2023-05-21T08:37:45.780Z,95.79
2023-05-21T08:40:41.526Z,95.93
2023-05-21T08:43:13.785Z,93.91
2023-05-21T08:45:54.803Z,91.65
2023-05-21T08:48:24.669Z,93.47
2023-05-21T08:50:53.637Z,92.54
2023-05-21T08:53:29.024Z,91.80
2023-05-21T08:55:57.674Z,93.20
2023-05-21T08:58:33.771Z,92.91
2023-05-21T09:01:01.379Z,91.11
2023-05-21T09:03:29.760Z,90.93
2023-05-21T09:05:57.522Z,90.94
2023-05-21T09:08:36.565Z,91.92
2023-05-21T09:11:07.727Z,92.76
2023-05-21T09:13:41.919Z,93.51
2023-05-21T09:16:14.522Z,93.92
2023-05-21T09:18:42.125Z,91.90
2023-05-21T09:21:29.128Z,92.41
2023-05-21T09:24:02.003Z,92.29
2023-05-21T09:26:29.862Z,91.34
2023-05-21T09:29:01.561Z,87.25
2023-05-21T09:31:29.988Z,88.25
2023-05-21T09:33:57.223Z,89.55
2023-05-21T09:36:25.912Z,86.63
2023-05-21T09:38:53.950Z,83.78
2023-05-21T09:41:22.317Z,83.20
2023-05-21T09:43:49.766Z,80.31
2023-05-21T09:46:23.587Z,82.46
2023-05-21T09:48:50.781Z,82.15
2023-05-21T09:51:21.837Z,82.90
2023-05-21T09:53:53.004Z,81.92
2023-05-21T09:56:25.021Z,81.92
2023-05-21T09:58:57.241Z,79.47
2023-05-21T10:01:25.172Z,78.09
2023-05-21T10:03:57.795Z,76.11
2023-05-21T10:06:28.288Z,75.26
2023-05-21T10:08:57.411Z,75.14
2023-05-21T10:11:27.247Z,74.91
2023-05-21T10:14:22.580Z,75.07
2023-05-21T10:16:50.360Z,76.45
2023-05-21T10:19:18.056Z,76.92
2023-05-21T10:21:46.372Z,77.78
2023-05-21T10:24:16.661Z,79.02
2023-05-21T10:26:44.939Z,79.96
2023-05-21T10:29:15.632Z,78.86
2023-05-21T10:31:49.781Z,76.35
2023-05-21T10:34:17.611Z,76.24
2023-05-21T10:36:45.169Z,75.53
2023-05-21T10:39:13.381Z,77.59
2023-05-21T10:42:00.341Z,76.14
2023-05-21T10:45:04.244Z,75.10
2023-05-21T10:47:54.485Z,73.91
2023-05-21T10:50:29.889Z,74.97
2023-05-21T10:53:18.124Z,71.04
2023-05-21T10:56:22.276Z,73.07
2023-05-21T10:59:21.741Z,72.46
2023-05-21T11:01:53.314Z,70.74
2023-05-21T11:04:41.919Z,69.50
2023-05-21T11:07:09.275Z,70.70
2023-05-21T11:09:36.289Z,72.26
2023-05-21T11:12:04.698Z,70.42
2023-05-21T11:14:40.714Z,70.75
2023-05-21T11:17:16.937Z,69.14
2023-05-21T11:19:50.876Z,69.20
2023-05-21T11:22:27.459Z,68.67
2023-05-21T11:24:56.401Z,68.92
2023-05-21T11:27:39.878Z,68.83
2023-05-21T11:30:16.330Z,69.11
2023-05-21T11:33:07.955Z,68.57
2023-05-21T11:35:50.141Z,68.18
2023-05-21T11:38:18.168Z,68.24
2023-05-21T11:40:55.489Z,67.70
2023-05-21T11:43:22.754Z,68.07
2023-05-21T11:45:53.152Z,68.26
2023-05-21T11:48:27.102Z,67.95
2023-05-21T11:50:54.957Z,67.75
2023-05-21T11:53:22.094Z,68.45
2023-05-21T11:55:50.762Z,69.65
2023-05-21T11:58:19.690Z,70.17
2023-05-21T12:00:51.071Z,70.22
2023-05-21T12:03:18.702Z,70.00
2023-05-21T12:05:49.680Z,69.60
2023-05-21T12:08:25.956Z,69.13
2023-05-21T12:11:00.007Z,66.85
2023-05-21T12:13:28.284Z,66.65
2023-05-21T12:15:55.344Z,66.87
2023-05-21T12:18:22.532Z,67.44
2023-05-21T12:20:51.984Z,67.63
2023-05-21T12:23:25.365Z,66.59
2023-05-21T12:25:53.831Z,66.96
2023-05-21T12:28:24.766Z,66.09
2023-05-21T12:30:53.416Z,66.36
2023-05-21T12:33:21.638Z,66.61
2023-05-21T12:35:50.540Z,67.03
2023-05-21T12:38:18.177Z,66.23
2023-05-21T12:40:45.596Z,65.62
2023-05-21T12:43:12.969Z,64.23
2023-05-21T12:45:40.061Z,65.24
2023-05-21T12:48:07.257Z,64.14
2023-05-21T12:50:35.869Z,64.11
2023-05-21T12:53:03.230Z,64.89
2023-05-21T12:55:31.678Z,63.70
2023-05-21T12:58:08.073Z,61.84
2023-05-21T13:00:35.876Z,61.27
2023-05-21T13:03:06.071Z,60.57
2023-05-21T13:05:33.501Z,61.45
2023-05-21T13:08:00.516Z,62.40
2023-05-21T13:10:27.477Z,62.52
2023-05-21T13:12:54.886Z,62.83
2023-05-21T13:15:21.967Z,62.73
2023-05-21T13:17:50.648Z,62.71
2023-05-21T13:20:21.676Z,63.27
2023-05-21T13:22:51.801Z,62.38
2023-05-21T13:25:24.896Z,62.96
2023-05-21T13:27:53.323Z,63.59
2023-05-21T13:30:21.492Z,63.63
2023-05-21T13:32:48.974Z,63.56
2023-05-21T13:35:16.597Z,62.69
2023-05-21T13:37:44.061Z,63.61
2023-05-21T13:40:16.327Z,62.92
2023-05-21T13:42:45.531Z,62.84
2023-05-21T13:45:15.145Z,63.38
2023-05-21T13:47:43.841Z,62.29
2023-05-21T13:50:11.609Z,63.16
2023-05-21T13:52:39.251Z,63.96
2023-05-21T13:55:06.972Z,63.77
2023-05-21T13:57:34.136Z,63.59
2023-05-21T14:00:01.503Z,62.89
2023-05-21T14:02:29.012Z,62.85
2023-05-21T14:04:56.169Z,62.12
2023-05-21T14:07:23.168Z,62.28
2023-05-21T14:09:50.364Z,61.76
2023-05-21T14:12:17.599Z,60.54
2023-05-21T14:14:44.717Z,59.62
2023-05-21T14:17:11.809Z,59.11
2023-05-21T14:19:38.746Z,59.71
2023-05-21T14:22:05.856Z,59.07
2023-05-21T14:24:32.824Z,58.83
2023-05-21T14:26:59.773Z,60.16
2023-05-21T14:29:26.735Z,59.63
2023-05-21T14:31:53.904Z,60.06
2023-05-21T14:34:20.881Z,59.84
2023-05-21T14:36:47.884Z,59.85
2023-05-21T14:39:14.970Z,60.57
2023-05-21T14:41:41.919Z,59.41
2023-05-21T14:44:08.916Z,59.91
2023-05-21T14:46:36.862Z,60.15
2023-05-21T14:49:04.120Z,59.79
2023-05-21T14:51:31.641Z,59.85
2023-05-21T14:53:58.958Z,59.89
2023-05-21T14:56:27.618Z,58.93
2023-05-21T14:58:55.031Z,58.63
2023-05-21T15:01:22.189Z,59.55
2023-05-21T15:03:49.647Z,59.96
2023-05-21T15:06:16.939Z,59.97
2023-05-21T15:08:43.974Z,60.37
2023-05-21T15:11:11.531Z,60.49
2023-05-21T15:13:39.608Z,60.78
2023-05-21T15:16:06.941Z,61.00
2023-05-21T15:18:34.145Z,61.60
2023-05-21T15:21:01.577Z,61.57
2023-05-21T15:23:28.753Z,62.21
2023-05-21T15:25:55.927Z,62.52
2023-05-21T15:28:23.069Z,61.48
2023-05-21T15:30:50.339Z,61.66
2023-05-21T15:33:17.533Z,61.30
2023-05-21T15:35:44.740Z,61.76
2023-05-21T15:38:12.288Z,61.28
2023-05-21T15:40:42.696Z,61.48
2023-05-21T15:43:09.698Z,60.88
2023-05-21T15:45:38.326Z,60.69
2023-05-21T15:48:06.154Z,60.70
2023-05-21T15:50:35.355Z,61.26
2023-05-21T15:53:06.035Z,62.30
2023-05-21T15:55:33.916Z,61.03
2023-05-21T15:58:02.548Z,61.54
2023-05-21T16:00:29.774Z,61.38
2023-05-21T16:02:56.811Z,61.67
2023-05-21T16:05:23.820Z,61.48
2023-05-21T16:07:50.854Z,61.42
2023-05-21T16:10:17.822Z,61.16
2023-05-21T16:12:44.811Z,61.01
2023-05-21T16:15:11.951Z,61.48
2023-05-21T16:17:38.899Z,61.27
2023-05-21T16:20:07.217Z,60.87
2023-05-21T16:22:34.148Z,61.41
2023-05-21T16:25:01.113Z,61.42
2023-05-21T16:27:28.096Z,61.66
2023-05-21T16:29:55.065Z,61.50
2023-05-21T16:32:22.385Z,61.75
2023-05-21T16:34:49.599Z,61.92
2023-05-21T16:37:16.513Z,62.50
2023-05-21T16:39:43.903Z,62.18
2023-05-21T16:42:10.888Z,62.54
2023-05-21T16:44:38.364Z,61.78
2023-05-21T16:47:05.483Z,62.03
2023-05-21T16:49:32.522Z,61.67
2023-05-21T16:51:59.536Z,61.69
2023-05-21T16:54:27.372Z,61.77
2023-05-21T16:56:54.987Z,61.92
2023-05-21T16:59:21.955Z,62.00
2023-05-21T17:01:48.949Z,62.54
2023-05-21T17:04:16.066Z,61.96
2023-05-21T17:06:43.022Z,62.27
2023-05-21T17:09:09.925Z,62.56
2023-05-21T17:11:36.896Z,62.40
2023-05-21T17:14:03.909Z,62.66
2023-05-21T17:16:31.120Z,62.63
2023-05-21T17:18:58.229Z,62.18
2023-05-21T17:21:26.692Z,62.63
2023-05-21T17:23:53.628Z,62.54
2023-05-21T17:26:23.129Z,62.40
2023-05-21T17:28:50.075Z,61.39
2023-05-21T17:31:17.068Z,61.46
2023-05-21T17:33:44.151Z,61.53
2023-05-21T17:36:11.070Z,62.17
2023-05-21T17:38:38.104Z,61.98
2023-05-21T17:41:05.368Z,61.83
2023-05-21T17:43:32.365Z,61.57
2023-05-21T17:45:59.523Z,61.73
2023-05-21T17:48:26.643Z,62.15
2023-05-21T17:50:53.709Z,62.51
2023-05-21T17:53:20.681Z,62.22
2023-05-21T17:55:47.645Z,62.98
2023-05-21T17:58:14.738Z,62.82
2023-05-21T18:00:41.800Z,63.05
2023-05-21T18:03:08.843Z,62.91
2023-05-21T18:05:36.541Z,63.55
2023-05-21T18:08:04.101Z,64.18
2023-05-21T18:10:31.058Z,63.86
2023-05-21T18:12:57.988Z,64.04
2023-05-21T18:15:24.981Z,64.56
2023-05-21T18:17:51.961Z,64.53
2023-05-21T18:20:19.015Z,64.54
2023-05-21T18:22:46.013Z,64.22
2023-05-21T18:25:12.969Z,64.59
2023-05-21T18:27:39.934Z,64.61
2023-05-21T18:30:08.438Z,64.82
2023-05-21T18:32:38.588Z,64.83
2023-05-21T18:35:11.173Z,65.06
2023-05-21T18:37:41.634Z,65.47
2023-05-21T18:40:09.356Z,65.48
2023-05-21T18:42:37.160Z,65.23
2023-05-21T18:45:09.045Z,65.54
2023-05-21T18:47:36.547Z,65.62
2023-05-21T18:50:03.650Z,65.47
2023-05-21T18:52:30.623Z,65.90
2023-05-21T18:54:57.587Z,65.98
2023-05-21T18:57:24.595Z,65.99
2023-05-21T18:59:51.596Z,66.03
2023-05-21T19:02:19.734Z,66.17
2023-05-21T19:04:46.769Z,66.49
2023-05-21T19:07:15.772Z,66.33
2023-05-21T19:09:42.823Z,66.49
2023-05-21T19:12:09.942Z,67.13
2023-05-21T19:14:36.874Z,66.88
2023-05-21T19:17:03.871Z,67.39
2023-05-21T19:19:30.945Z,67.50
2023-05-21T19:21:58.369Z,67.63
2023-05-21T19:24:25.322Z,67.82
2023-05-21T19:26:52.253Z,67.99
2023-05-21T19:29:19.224Z,68.37
2023-05-21T19:31:46.424Z,68.09
2023-05-21T19:34:13.379Z,68.66
2023-05-21T19:36:52.241Z,69.05
2023-05-21T19:39:20.339Z,68.92
2023-05-21T19:41:47.289Z,68.97
2023-05-21T19:44:14.311Z,69.14
2023-05-21T19:46:41.296Z,69.35
2023-05-21T19:49:10.441Z,69.35
2023-05-21T19:51:37.403Z,69.25
2023-05-21T19:54:04.488Z,69.22
2023-05-21T19:56:31.472Z,69.45
2023-05-21T19:58:58.467Z,69.47
2023-05-21T20:01:25.869Z,69.74
2023-05-21T20:03:52.915Z,69.80
2023-05-21T20:06:20.708Z,69.76
2023-05-21T20:08:48.055Z,70.01
2023-05-21T20:11:15.260Z,70.09
2023-05-21T20:13:42.426Z,70.27
2023-05-21T20:16:10.508Z,70.43
2023-05-21T20:18:37.569Z,70.61
2023-05-21T20:21:06.377Z,70.79
2023-05-21T20:23:33.372Z,71.11
2023-05-21T20:26:00.362Z,71.18
2023-05-21T20:28:27.309Z,71.08
2023-05-21T20:30:59.676Z,71.22
2023-05-21T20:33:30.008Z,71.70
2023-05-21T20:35:56.999Z,71.39
2023-05-21T20:38:27.343Z,71.23
2023-05-21T20:40:55.521Z,71.58
2023-05-21T20:43:24.440Z,71.47
2023-05-21T20:46:02.253Z,71.48
2023-05-21T20:48:29.859Z,71.49
2023-05-21T20:51:00.003Z,71.63
2023-05-21T20:53:27.315Z,71.71
2023-05-21T20:55:54.659Z,71.50
2023-05-21T20:58:25.439Z,71.90
2023-05-21T21:00:52.693Z,72.37
2023-05-21T21:03:21.539Z,72.25
2023-05-21T21:05:48.853Z,72.09
2023-05-21T21:08:16.161Z,72.18
2023-05-21T21:10:46.685Z,72.12
2023-05-21T21:13:14.406Z,72.33
2023-05-21T21:15:42.592Z,72.36
2023-05-21T21:18:12.382Z,72.83
2023-05-21T21:20:41.332Z,72.59
2023-05-21T21:23:08.626Z,72.84
2023-05-21T21:25:35.826Z,73.15
2023-05-21T21:28:02.783Z,73.24
2023-05-21T21:30:29.732Z,73.57
2023-05-21T21:32:56.680Z,73.62
2023-05-21T21:35:23.799Z,73.77
2023-05-21T21:37:50.896Z,73.64
2023-05-21T21:40:18.036Z,73.73
2023-05-21T21:42:44.968Z,74.25
2023-05-21T21:45:12.000Z,74.46
2023-05-21T21:47:39.002Z,74.27
2023-05-21T21:50:07.549Z,74.48
2023-05-21T21:52:34.604Z,74.63
2023-05-21T21:55:01.568Z,74.73
2023-05-21T21:57:29.917Z,74.93
2023-05-21T21:59:56.906Z,74.97
2023-05-21T22:02:23.899Z,74.84
2023-05-21T22:04:50.957Z,74.94
2023-05-21T22:07:18.115Z,75.17
2023-05-21T22:09:45.787Z,74.93
2023-05-21T22:12:13.522Z,75.21
2023-05-21T22:14:40.462Z,75.47
2023-05-21T22:17:08.610Z,75.40
2023-05-21T22:19:35.894Z,75.66
2023-05-21T22:22:04.186Z,75.94
2023-05-21T22:24:33.218Z,75.83
2023-05-21T22:27:00.524Z,76.37
2023-05-21T22:29:27.540Z,76.11
2023-05-21T22:31:54.590Z,76.63
2023-05-21T22:34:22.933Z,76.31
2023-05-21T22:36:49.978Z,76.49
2023-05-21T22:39:17.940Z,76.30
2023-05-21T22:41:45.600Z,76.63
2023-05-21T22:44:12.589Z,76.43
2023-05-21T22:46:42.078Z,76.14
2023-05-21T22:49:10.244Z,76.48
2023-05-21T22:51:37.557Z,76.48
2023-05-21T22:54:04.992Z,76.89
2023-05-21T22:56:31.930Z,76.96
2023-05-21T22:58:59.567Z,76.96
2023-05-21T23:01:26.655Z,76.65
2023-05-21T23:03:53.697Z,76.74
2023-05-21T23:06:20.903Z,77.12
2023-05-21T23:08:47.851Z,76.77
2023-05-21T23:11:14.968Z,77.15
2023-05-21T23:13:41.925Z,77.14
2023-05-21T23:16:08.919Z,77.06
2023-05-21T23:18:36.006Z,77.12
2023-05-21T23:21:03.156Z,77.17
2023-05-21T23:23:30.491Z,77.20
2023-05-21T23:25:58.825Z,77.20
2023-05-21T23:28:26.412Z,77.14
2023-05-21T23:30:53.374Z,77.37
2023-05-21T23:33:20.374Z,77.19
2023-05-21T23:35:47.279Z,77.13
2023-05-21T23:38:14.297Z,77.04
2023-05-21T23:40:41.936Z,76.93
2023-05-21T23:43:08.883Z,77.42
2023-05-21T23:45:35.956Z,77.65
2023-05-21T23:48:03.040Z,77.63
2023-05-21T23:50:30.038Z,77.65
2023-05-21T23:52:57.018Z,77.82
2023-05-21T23:55:24.076Z,77.35
2023-05-21T23:57:51.035Z,77.54
